Date,TemperatureHighF,TemperatureAvgF,TemperatureLowF,DewpointHighF,DewpointAvgF,DewpointLowF,HumidityHigh,HumidityAvg,HumidityLow,PressureMaxIn,PressureMinIn,WindSpeedMaxMPH,WindSpeedAvgMPH,GustSpeedMaxMPH,PrecipitationSumIn
2013-1-1,65,56,48,-100,-100,-100,0,0,100,0.00,40.00,0,-999,0,0.00
2013-1-2,45,41,39,-100,-100,-100,0,0,100,0.00,40.00,0,-999,0,0.00
2013-1-3,47,40,35,-100,-100,-100,0,0,100,0.00,40.00,0,-999,0,0.00
2013-1-4,47,42,36,-100,-100,-100,0,0,100,0.00,40.00,0,-999,0,0.00
2013-1-5,44,42,40,-100,-100,-100,0,0,100,0.00,40.00,0,-999,0,0.00
2013-1-6,53,45,40,-100,-100,-100,0,0,100,0.00,40.00,0,-999,0,0.00
2013-1-7,56,45,36,-100,-100,-100,0,0,100,0.00,40.00,0,-999,0,0.00
2013-1-8,62,54,47,-100,-100,-100,0,0,100,0.00,40.00,0,-999,0,0.00
2013-1-9,65,62,60,-100,-100,-100,0,0,100,0.00,40.00,0,-999,0,0.00
2013-1-10,66,64,61,-100,-100,-100,0,0,100,0.00,40.00,0,-999,0,0.00
2013-1-11,72,64,55,-100,-100,-100,0,0,100,0.00,40.00,0,-999,0,0.00
2013-1-12,76,73,70,-100,-100,-100,0,0,100,0.00,40.00,0,-999,0,0.00
2013-1-13,74,60,44,-100,-100,-100,0,0,100,0.00,40.00,0,-999,0,0.00
2013-1-14,42,39,33,-100,-100,-100,0,0,100,0.00,40.00,0,-999,0,0.00
2013-1-15,36,35,32,-100,-100,-100,0,0,100,0.00,40.00,0,-999,0,0.00
2013-1-16,36,34,32,-100,-100,-100,0,0,100,0.00,40.00,0,-999,0,0.00
2013-1-17,52,38,30,-100,-100,-100,0,0,100,0.00,40.00,0,-999,0,0.00
2013-1-18,56,41,34,-100,-100,-100,0,0,100,0.00,40.00,0,-999,0,0.00
2013-1-19,62,45,33,-100,-100,-100,0,0,100,0.00,40.00,0,-999,0,0.00
2013-1-20,65,49,35,-100,-100,-100,0,0,100,0.00,40.00,0,-999,0,0.00
2013-1-21,71,51,43,-100,-100,-100,0,0,100,0.00,40.00,0,-999,0,0.00
2013-1-22,66,51,39,-100,-100,-100,0,0,100,0.00,40.00,0,-999,0,0.00
2013-1-23,69,57,45,-100,-100,-100,0,0,100,0.00,40.00,0,-999,0,0.00
2013-1-24,73,63,51,-100,-100,-100,0,0,100,0.00,40.00,0,-999,0,0.00
2013-1-25,75,64,54,-100,-100,-100,0,0,100,0.00,40.00,0,-999,0,0.00
2013-1-26,77,63,55,-100,-100,-100,0,0,100,0.00,40.00,0,-999,0,0.00
2013-1-27,77,65,54,-100,-100,-100,0,0,100,0.00,40.00,0,-999,0,0.00
2013-1-28,76,67,61,-100,-100,-100,0,0,100,0.00,40.00,0,-999,0,0.00
2013-1-29,77,72,69,-100,-100,-100,0,0,100,0.00,40.00,0,-999,0,0.00
2013-1-30,73,60,51,-100,-100,-100,0,0,100,0.00,40.00,0,-999,0,0.00
2013-1-31,61,53,41,-100,-100,-100,0,0,100,0.00,40.00,0,-999,0,0.00
2013-2-1,61,50,43,-100,-100,-100,0,0,100,0.00,40.00,0,-999,0,0.00
2013-2-2,71,56,40,-100,-100,-100,0,0,100,0.00,40.00,0,-999,0,0.00
2013-2-3,68,58,47,-100,-100,-100,0,0,100,0.00,40.00,0,-999,0,0.00
2013-2-4,71,56,46,-100,-100,-100,0,0,100,0.00,40.00,0,-999,0,0.00
2013-2-5,67,59,54,-100,-100,-100,0,0,100,0.00,40.00,0,-999,0,0.00
2013-2-6,65,59,51,-100,-100,-100,0,0,100,0.00,40.00,0,-999,0,0.00
2013-2-7,69,61,57,-100,-100,-100,0,0,100,0.00,40.00,0,-999,0,0.00
2013-2-8,62,58,51,-100,-100,-100,0,0,100,0.00,40.00,0,-999,0,0.00
2013-2-9,68,58,50,-100,-100,-100,0,0,100,0.00,40.00,0,-999,0,0.00
2013-2-10,76,66,61,-100,-100,-100,0,0,100,0.00,40.00,0,-999,0,0.00
2013-2-11,64,55,49,-100,-100,-100,0,0,100,0.00,40.00,0,-999,0,0.00
2013-2-12,71,55,51,-100,-100,-100,0,0,100,0.00,40.00,0,-999,0,0.00
2013-2-13,57,50,43,-100,-100,-100,0,0,100,0.00,40.00,0,-999,0,0.00
2013-2-14,59,47,39,-100,-100,-100,0,0,100,0.00,40.00,0,-999,0,0.00
2013-2-15,65,50,38,-100,-100,-100,0,0,100,0.00,40.00,0,-999,0,0.00
2013-2-16,54,43,37,-100,-100,-100,0,0,100,0.00,40.00,0,-999,0,0.00
2013-2-17,64,52,32,-100,-100,-100,0,0,100,0.00,40.00,0,-999,0,0.00
2013-2-18,70,62,50,-100,-100,-100,0,0,100,0.00,40.00,0,-999,0,0.00
2013-2-19,63,54,47,-100,-100,-100,0,0,100,0.00,40.00,0,-999,0,0.00
2013-2-20,60,49,40,-100,-100,-100,0,0,100,0.00,40.00,0,-999,0,0.00
2013-2-21,72,60,53,-100,-100,-100,0,0,100,0.00,40.00,0,-999,0,0.00
2013-2-22,65,58,55,-100,-100,-100,0,0,100,0.00,40.00,0,-999,0,0.00
2013-2-23,62,54,47,-100,-100,-100,0,0,100,0.00,40.00,0,-999,0,0.00
2013-2-24,70,54,42,-100,-100,-100,0,0,100,0.00,40.00,0,-999,0,0.00
2013-2-25,72,62,52,-100,-100,-100,0,0,100,0.00,40.00,0,-999,0,0.00
2013-2-26,58,49,42,-100,-100,-100,0,0,100,0.00,40.00,0,-999,0,0.00
2013-2-27,68,50,42,-100,-100,-100,0,0,100,0.00,40.00,0,-999,0,0.00
2013-2-28,52,46,40,-100,-100,-100,0,0,100,0.00,40.00,0,-999,0,0.00
2013-3-1,56,46,36,-100,-100,-100,0,0,100,0.00,40.00,0,-999,0,0.00
2013-3-2,46,40,33,-100,-100,-100,0,0,100,0.00,40.00,0,-999,0,0.00
2013-3-3,61,46,28,-100,-100,-100,0,0,100,0.00,40.00,0,-999,0,0.00
2013-3-4,71,59,45,-100,-100,-100,0,0,100,0.00,40.00,0,-999,0,0.00
2013-3-5,69,61,50,-100,-100,-100,0,0,100,0.00,40.00,0,-999,0,0.00
2013-3-6,62,47,36,-100,-100,-100,0,0,100,0.00,40.00,0,-999,0,0.00
2013-3-7,64,50,36,-100,-100,-100,0,0,100,0.00,40.00,0,-999,0,0.00
2013-3-8,74,56,39,-100,-100,-100,0,0,100,0.00,40.00,0,-999,0,0.00
2013-3-9,72,59,52,-100,-100,-100,0,0,100,0.00,40.00,0,-999,0,0.00
2013-3-10,74,63,52,-100,-100,-100,0,0,100,0.00,40.00,0,-999,0,0.00
2013-3-11,57,48,42,-100,-100,-100,0,0,100,0.00,40.00,0,-999,0,0.00
2013-3-12,62,48,39,-100,-100,-100,0,0,100,0.00,40.00,0,-999,0,0.00
2013-3-13,66,56,43,-100,-100,-100,0,0,100,0.00,40.00,0,-999,0,0.00
2013-3-14,70,51,40,-100,-100,-100,0,0,100,0.00,40.00,0,-999,0,0.00
2013-3-15,73,63,44,-100,-100,-100,0,0,100,0.00,40.00,0,-999,0,0.00
2013-3-16,77,64,51,-100,-100,-100,0,0,100,0.00,40.00,0,-999,0,0.00
2013-3-17,80,69,60,-100,-100,-100,0,0,100,0.00,40.00,0,-999,0,0.00
2013-3-18,83,76,69,-100,-100,-100,0,0,100,0.00,40.00,0,-999,0,0.00
2013-3-19,73,62,48,-100,-100,-100,0,0,100,0.00,40.00,0,-999,0,0.00
2013-3-20,69,57,50,-100,-100,-100,0,0,100,0.00,40.00,0,-999,0,0.00
2013-3-21,73,55,45,-100,-100,-100,0,0,100,0.00,40.00,0,-999,0,0.00
2013-3-22,80,66,57,-100,-100,-100,0,0,100,0.00,40.00,0,-999,0,0.00
2013-3-23,71,69,66,-100,-100,-100,0,0,100,0.00,40.00,0,-999,0,0.00
2013-3-24,67,57,43,-100,-100,-100,0,0,100,0.00,40.00,0,-999,0,0.00
2013-3-25,57,45,34,-100,-100,-100,0,0,100,0.00,40.00,0,-999,0,0.00
2013-3-26,55,44,32,-100,-100,-100,0,0,100,0.00,40.00,0,-999,0,0.00
2013-3-27,64,49,33,-100,-100,-100,0,0,100,0.00,40.00,0,-999,0,0.00
2013-3-28,73,53,38,-100,-100,-100,0,0,100,0.00,40.00,0,-999,0,0.00
2013-3-29,81,62,47,-100,-100,-100,0,0,100,0.00,40.00,0,-999,0,0.00
2013-3-30,77,64,55,-100,-100,-100,0,0,100,0.00,40.00,0,-999,0,0.00
2013-3-31,79,66,58,-100,-100,-100,0,0,100,0.00,40.00,0,-999,0,0.00
2013-4-1,76,62,56,-100,-100,-100,0,0,100,0.00,40.00,0,-999,0,0.00
2013-4-2,83,66,54,-100,-100,-100,0,0,100,0.00,40.00,0,-999,0,0.00
2013-4-3,62,52,47,-100,-100,-100,0,0,100,0.00,40.00,0,-999,0,0.00
2013-4-4,52,47,45,-100,-100,-100,0,0,100,0.00,40.00,0,-999,0,0.00
2013-4-5,67,53,42,-100,-100,-100,0,0,100,0.00,40.00,0,-999,0,0.00
2013-4-6,73,58,45,-100,-100,-100,0,0,100,0.00,40.00,0,-999,0,0.00
2013-4-7,81,67,55,-100,-100,-100,0,0,100,0.00,40.00,0,-999,0,0.00
2013-4-8,83,71,62,-100,-100,-100,0,0,100,0.00,40.00,0,-999,0,0.00
2013-4-9,83,76,66,-100,-100,-100,0,0,100,0.00,40.00,0,-999,0,0.00
2013-4-10,83,78,73,-100,-100,-100,0,0,100,0.00,40.00,0,-999,0,0.00
2013-4-11,76,61,52,-100,-100,-100,0,0,100,0.00,40.00,0,-999,0,0.00
2013-4-12,75,59,45,-100,-100,-100,0,0,100,0.00,40.00,0,-999,0,0.00
2013-4-13,81,66,51,-100,-100,-100,0,0,100,0.00,40.00,0,-999,0,0.00
2013-4-14,83,66,56,-100,-100,-100,0,0,100,0.00,40.00,0,-999,0,0.00
2013-4-15,91,75,63,-100,-100,-100,0,0,100,0.00,40.00,0,-999,0,0.00
2013-4-16,87,78,73,-100,-100,-100,0,0,100,0.00,40.00,0,-999,0,0.00
2013-4-17,88,80,75,-100,-100,-100,0,0,100,0.00,40.00,0,-999,0,0.00
2013-4-18,84,77,51,-100,-100,-100,0,0,100,0.00,40.00,0,-999,0,0.00
2013-4-19,58,52,48,-100,-100,-100,0,0,100,0.00,40.00,0,-999,0,0.00
2013-4-20,69,51,41,-100,-100,-100,0,0,100,0.00,40.00,0,-999,0,0.00
2013-4-21,75,58,47,-100,-100,-100,0,0,100,0.00,40.00,0,-999,0,0.00
2013-4-22,82,64,51,-100,-100,-100,0,0,100,0.00,40.00,0,-999,0,0.00
2013-4-23,86,74,61,-100,-100,-100,0,0,100,0.00,40.00,0,-999,0,0.00
2013-4-24,73,62,53,-100,-100,-100,0,0,100,0.00,40.00,0,-999,0,0.00
2013-4-25,68,58,49,-100,-100,-100,0,0,100,0.00,40.00,0,-999,0,0.00
2013-4-26,87,72,55,-100,-100,-100,0,0,100,0.00,40.00,0,-999,0,0.00
2013-4-27,86,76,69,-100,-100,-100,0,0,100,0.00,40.00,0,-999,0,0.00
2013-4-28,73,70,66,-100,-100,-100,0,0,100,0.00,40.00,0,-999,0,0.00
2013-4-29,87,73,62,-100,-100,-100,0,0,100,0.00,40.00,0,-999,0,0.00
2013-4-30,76,69,63,-100,-100,-100,0,0,100,0.00,40.00,0,-999,0,0.00
2013-5-1,84,74,65,-100,-100,-100,0,0,100,0.00,40.00,0,-999,0,0.00
2013-5-2,73,67,64,-100,-100,-100,0,0,100,0.00,40.00,0,-999,0,0.00
2013-5-3,56,52,47,-100,-100,-100,0,0,100,0.00,40.00,0,-999,0,0.00
2013-5-4,74,58,41,-100,-100,-100,0,0,100,0.00,40.00,0,-999,0,0.00
2013-5-5,65,56,47,-100,-100,-100,0,0,100,0.00,40.00,0,-999,0,0.00
2013-5-6,76,59,48,-100,-100,-100,0,0,100,0.00,40.00,0,-999,0,0.00
2013-5-7,82,69,57,-100,-100,-100,0,0,100,0.00,40.00,0,-999,0,0.00
2013-5-8,87,71,59,-100,-100,-100,0,0,100,0.00,40.00,0,-999,0,0.00
2013-5-9,82,72,62,-100,-100,-100,0,0,100,0.00,40.00,0,-999,0,0.00
2013-5-10,75,69,65,-100,-100,-100,0,0,100,0.00,40.00,0,-999,0,0.00
2013-5-11,84,71,63,-100,-100,-100,0,0,100,0.00,40.00,0,-999,0,0.00
2013-5-12,79,70,60,-100,-100,-100,0,0,100,0.00,40.00,0,-999,0,0.00
2013-5-13,87,64,53,-100,-100,-100,0,0,100,0.00,40.00,0,-999,0,0.00
2013-5-14,89,75,57,-100,-100,-100,0,0,100,0.00,40.00,0,-999,0,0.00
2013-5-15,83,72,59,-100,-100,-100,0,0,100,0.00,40.00,0,-999,0,0.00
2013-5-16,87,75,65,-100,-100,-100,0,0,100,0.00,40.00,0,-999,0,0.00
2013-5-17,92,80,69,-100,-100,-100,0,0,100,0.00,40.00,0,-999,0,0.00
2013-5-18,94,83,75,-100,-100,-100,0,0,100,0.00,40.00,0,-999,0,0.00
2013-5-19,93,80,73,-100,-100,-100,0,0,100,0.00,40.00,0,-999,0,0.00
2013-5-20,93,83,77,-100,-100,-100,0,0,100,0.00,40.00,0,-999,0,0.00
2013-5-21,95,85,77,-100,-100,-100,0,0,100,0.00,40.00,0,-999,0,0.00
2013-5-22,85,76,69,-100,-100,-100,0,0,100,0.00,40.00,0,-999,0,0.00
2013-5-23,94,81,67,-100,-100,-100,0,0,100,0.00,40.00,0,-999,0,0.00
2013-5-24,91,79,66,-100,-100,-100,0,0,100,0.00,40.00,0,-999,0,0.00
2013-5-25,88,76,70,-100,-100,-100,0,0,100,0.00,40.00,0,-999,0,0.00
2013-5-26,89,79,73,-100,-100,-100,0,0,100,0.00,40.00,0,-999,0,0.00
2013-5-27,95,82,71,-100,-100,-100,0,0,100,0.00,40.00,0,-999,0,0.00
2013-5-28,93,80,70,-100,-100,-100,0,0,100,0.00,40.00,0,-999,0,0.00
2013-5-29,94,79,69,-100,-100,-100,0,0,100,0.00,40.00,0,-999,0,0.00
2013-5-30,94,83,73,-100,-100,-100,0,0,100,0.00,40.00,0,-999,0,0.00
2013-5-31,92,81,74,-100,-100,-100,0,0,100,0.00,40.00,0,-999,0,0.00
2013-6-1,92,83,76,-100,-100,-100,0,0,100,0.00,40.00,0,-999,0,0.00
2013-6-2,89,80,73,-100,-100,-100,0,0,100,0.00,40.00,0,-999,0,0.00
2013-6-3,87,77,71,-100,-100,-100,0,0,100,0.00,40.00,0,-999,0,0.00
2013-6-4,97,83,72,-100,-100,-100,0,0,100,0.00,40.00,0,-999,0,0.00
2013-6-5,97,83,76,-100,-100,-100,0,0,100,0.00,40.00,0,-999,0,0.00
2013-6-6,89,80,73,-100,-100,-100,0,0,100,0.00,40.00,0,-999,0,0.00
2013-6-7,87,78,69,-100,-100,-100,0,0,100,0.00,40.00,0,-999,0,0.00
2013-6-8,94,76,69,-100,-100,-100,0,0,100,0.00,40.00,0,-999,0,0.00
2013-6-9,95,75,69,-100,-100,-100,0,0,100,0.00,40.00,0,-999,0,0.00
2013-6-10,97,82,70,-100,-100,-100,0,0,100,0.00,40.00,0,-999,0,0.00
2013-6-11,100,84,73,-100,-100,-100,0,0,100,0.00,40.00,0,-999,0,0.00
2013-6-12,101,88,77,-100,-100,-100,0,0,100,0.00,40.00,0,-999,0,0.00
2013-6-13,95,86,75,-100,-100,-100,0,0,100,0.00,40.00,0,-999,0,0.00
2013-6-14,97,86,78,-100,-100,-100,0,0,100,0.00,40.00,0,-999,0,0.00
2013-6-15,96,82,71,-100,-100,-100,0,0,100,0.00,40.00,0,-999,0,0.00
2013-6-16,98,87,80,-100,-100,-100,0,0,100,0.00,40.00,0,-999,0,0.00
2013-6-17,94,86,76,-100,-100,-100,0,0,100,0.00,40.00,0,-999,0,0.00
2013-6-18,96,82,71,-100,-100,-100,0,0,100,0.00,40.00,0,-999,0,0.00
2013-6-19,86,80,73,-100,-100,-100,0,0,100,0.00,40.00,0,-999,0,0.00
2013-6-20,90,79,73,-100,-100,-100,0,0,100,0.00,40.00,0,-999,0,0.00
2013-6-22,95,89,87,-100,-100,-100,0,0,100,0.00,40.00,0,-999,0,0.00
2013-6-23,94,81,73,-100,-100,-100,0,0,100,0.00,40.00,0,-999,0,0.00
2013-6-24,96,85,76,-100,-100,-100,0,0,100,0.00,40.00,0,-999,0,0.00
2013-6-25,97,84,73,-100,-100,-100,0,0,100,0.00,40.00,0,-999,0,0.00
2013-6-26,98,85,74,-100,-100,-100,0,0,100,0.00,40.00,0,-999,0,0.00
2013-6-27,98,86,75,-100,-100,-100,0,0,100,0.00,40.00,0,-999,0,0.00
2013-6-28,96,89,78,-100,-100,-100,0,0,100,0.00,40.00,0,-999,0,0.00
2013-6-29,99,83,80,-100,-100,-100,0,0,100,0.00,40.00,0,-999,0,0.00
2013-6-30,93,82,74,-100,-100,-100,0,0,100,0.00,40.00,0,-999,0,0.00
2013-7-1,87,77,69,-100,-100,-100,0,0,100,0.00,40.00,0,-999,0,0.00
2013-7-2,92,78,69,-100,-100,-100,0,0,100,0.00,40.00,0,-999,0,0.00
2013-7-3,89,76,65,-100,-100,-100,0,0,100,0.00,40.00,0,-999,0,0.00
2013-7-4,90,76,68,-100,-100,-100,0,0,100,0.00,40.00,0,-999,0,0.00
2013-7-5,90,80,69,-100,-100,-100,0,0,100,0.00,40.00,0,-999,0,0.00
2013-7-6,90,74,69,-100,-100,-100,0,0,100,0.00,40.00,0,-999,0,0.00
2013-7-7,87,79,74,-100,-100,-100,0,0,100,0.00,40.00,0,-999,0,0.00
2013-7-8,94,80,73,-100,-100,-100,0,0,100,0.00,40.00,0,-999,0,0.00
2013-7-9,88,81,73,-100,-100,-100,0,0,100,0.00,40.00,0,-999,0,0.00
2013-7-10,98,87,77,-100,-100,-100,0,0,100,0.00,40.00,0,-999,0,0.00
2013-7-11,94,81,76,-100,-100,-100,0,0,100,0.00,40.00,0,-999,0,0.00
2013-7-12,95,81,72,-100,-100,-100,0,0,100,0.00,40.00,0,-999,0,0.00
2013-7-13,91,82,70,-100,-100,-100,0,0,100,0.00,40.00,0,-999,0,0.00
2013-7-14,94,79,72,-100,-100,-100,0,0,100,0.00,40.00,0,-999,0,0.00
2013-7-15,87,78,72,-100,-100,-100,0,0,100,0.00,40.00,0,-999,0,0.00
2013-7-16,87,78,72,-100,-100,-100,0,0,100,0.00,40.00,0,-999,0,0.00
2013-7-17,94,78,73,-100,-100,-100,0,0,100,0.00,40.00,0,-999,0,0.00
2013-7-18,91,80,74,-100,-100,-100,0,0,100,0.00,40.00,0,-999,0,0.00
2013-7-19,90,80,70,-100,-100,-100,0,0,100,0.00,40.00,0,-999,0,0.00
2013-7-20,87,77,71,-100,-100,-100,0,0,100,0.00,40.00,0,-999,0,0.00
2013-7-21,87,79,73,-100,-100,-100,0,0,100,0.00,40.00,0,-999,0,0.00
2013-7-22,98,85,76,-100,-100,-100,0,0,100,0.00,40.00,0,-999,0,0.00
2013-7-23,97,84,76,-100,-100,-100,0,0,100,0.00,40.00,0,-999,0,0.00
2013-7-24,92,88,77,-100,-100,-100,0,0,100,0.00,40.00,0,-999,0,0.00
2013-7-25,94,83,76,-100,-100,-100,0,0,100,0.00,40.00,0,-999,0,0.00
2013-7-26,95,80,73,-100,-100,-100,0,0,100,0.00,40.00,0,-999,0,0.00
2013-7-27,87,82,77,-100,-100,-100,0,0,100,0.00,40.00,0,-999,0,0.00
2013-7-28,92,80,72,-100,-100,-100,0,0,100,0.00,40.00,0,-999,0,0.00
2013-7-29,102,86,76,-100,-100,-100,0,0,100,0.00,40.00,0,-999,0,0.00
2013-7-30,99,82,76,-100,-100,-100,0,0,100,0.00,40.00,0,-999,0,0.00
2013-7-31,100,87,74,-100,-100,-100,0,0,100,0.00,40.00,0,-999,0,0.00
2013-8-1,94,83,76,-100,-100,-100,0,0,100,0.00,40.00,0,-999,0,0.00
2013-8-2,98,90,80,-100,-100,-100,0,0,100,0.00,40.00,0,-999,0,0.00
2013-8-3,98,88,77,-100,-100,-100,0,0,100,0.00,40.00,0,-999,0,0.00
2013-8-4,95,81,73,-100,-100,-100,0,0,100,0.00,40.00,0,-999,0,0.00
2013-8-5,99,86,76,-100,-100,-100,0,0,100,0.00,40.00,0,-999,0,0.00
2013-8-6,99,90,79,-100,-100,-100,0,0,100,0.00,40.00,0,-999,0,0.00
2013-8-7,102,88,79,-100,-100,-100,0,0,100,0.00,40.00,0,-999,0,0.00
2013-8-8,105,86,73,-100,-100,-100,0,0,100,0.00,40.00,0,-999,0,0.00
2013-8-9,96,84,76,-100,-100,-100,0,0,100,0.00,40.00,0,-999,0,0.00
2013-8-10,97,83,76,-100,-100,-100,0,0,100,0.00,40.00,0,-999,0,0.00
2013-8-11,91,81,73,-100,-100,-100,0,0,100,0.00,40.00,0,-999,0,0.00
2013-8-12,93,81,76,-100,-100,-100,0,0,100,0.00,40.00,0,-999,0,0.00
2013-8-13,98,84,76,-100,-100,-100,0,0,100,0.00,40.00,0,-999,0,0.00
2013-8-14,85,79,75,-100,-100,-100,0,0,100,0.00,40.00,0,-999,0,0.00
2013-8-15,88,76,69,-100,-100,-100,0,0,100,0.00,40.00,0,-999,0,0.00
2013-8-16,91,78,69,-100,-100,-100,0,0,100,0.00,40.00,0,-999,0,0.00
2013-8-17,90,77,65,-100,-100,-100,0,0,100,0.00,40.00,0,-999,0,0.00
2013-8-18,90,77,69,-100,-100,-100,0,0,100,0.00,40.00,0,-999,0,0.00
2013-8-19,85,75,69,-100,-100,-100,0,0,100,0.00,40.00,0,-999,0,0.00
2013-8-20,81,75,69,-100,-100,-100,0,0,100,0.00,40.00,0,-999,0,0.00
2013-8-21,95,80,70,-100,-100,-100,0,0,100,0.00,40.00,0,-999,0,0.00
2013-8-22,94,82,71,-100,-100,-100,0,0,100,0.00,40.00,0,-999,0,0.00
2013-8-23,96,83,73,-100,-100,-100,0,0,100,0.00,40.00,0,-999,0,0.00
2013-8-24,88,80,72,-100,-100,-100,0,0,100,0.00,40.00,0,-999,0,0.00
2013-8-25,88,78,72,-100,-100,-100,0,0,100,0.00,40.00,0,-999,0,0.00
2013-8-26,90,77,73,-100,-100,-100,0,0,100,0.00,40.00,0,-999,0,0.00
2013-8-27,89,76,71,-100,-100,-100,0,0,100,0.00,40.00,0,-999,0,0.00
2013-8-28,94,86,74,-100,-100,-100,0,0,100,0.00,40.00,0,-999,0,0.00
2013-8-29,94,82,69,-100,-100,-100,0,0,100,0.00,40.00,0,-999,0,0.00
2013-8-30,98,84,72,-100,-100,-100,0,0,100,0.00,40.00,0,-999,0,0.00
2013-8-31,100,83,70,-100,-100,-100,0,0,100,0.00,40.00,0,-999,0,0.00
2013-9-1,102,89,77,-100,-100,-100,0,0,100,0.00,40.00,0,-999,0,0.00
2013-9-2,99,84,73,-100,-100,-100,0,0,100,0.00,40.00,0,-999,0,0.00
2013-9-3,87,81,77,-100,-100,-100,0,0,100,0.00,40.00,0,-999,0,0.00
2013-9-4,92,81,73,-100,-100,-100,0,0,100,0.00,40.00,0,-999,0,0.00
2013-9-5,95,81,73,-100,-100,-100,0,0,100,0.00,40.00,0,-999,0,0.00
2013-9-6,94,78,71,-100,-100,-100,0,0,100,0.00,40.00,0,-999,0,0.00
2013-9-7,97,83,72,-100,-100,-100,0,0,100,0.00,40.00,0,-999,0,0.00
2013-9-8,94,78,68,-100,-100,-100,0,0,100,0.00,40.00,0,-999,0,0.00
2013-9-9,99,80,68,-100,-100,-100,0,0,100,0.00,40.00,0,-999,0,0.00
2013-9-10,95,79,69,-100,-100,-100,0,0,100,0.00,40.00,0,-999,0,0.00
2013-9-11,94,83,71,-100,-100,-100,0,0,100,0.00,40.00,0,-999,0,0.00
2013-9-12,98,82,69,-100,-100,-100,0,0,100,0.00,40.00,0,-999,0,0.00
2013-9-13,101,85,72,-100,-100,-100,0,0,100,0.00,40.00,0,-999,0,0.00
2013-9-14,90,80,72,-100,-100,-100,0,0,100,0.00,40.00,0,-999,0,0.00
2013-9-15,97,80,69,-100,-100,-100,0,0,100,0.00,40.00,0,-999,0,0.00
2013-9-16,96,82,73,-100,-100,-100,0,0,100,0.00,40.00,0,-999,0,0.00
2013-9-17,96,85,71,-100,-100,-100,0,0,100,0.00,40.00,0,-999,0,0.00
2013-9-18,81,75,71,-100,-100,-100,0,0,100,0.00,40.00,0,-999,0,0.00
2013-9-19,94,83,73,-100,-100,-100,0,0,100,0.00,40.00,0,-999,0,0.00
2013-9-20,87,78,75,-100,-100,-100,0,0,100,0.00,40.00,0,-999,0,0.00
2013-9-21,76,72,69,-100,-100,-100,0,0,100,0.00,40.00,0,-999,0,0.00
2013-9-22,82,73,64,-100,-100,-100,0,0,100,0.00,40.00,0,-999,0,0.00
2013-9-23,90,76,62,-100,-100,-100,0,0,100,0.00,40.00,0,-999,0,0.00
2013-9-24,89,81,75,-100,-100,-100,0,0,100,0.00,40.00,0,-999,0,0.00
2013-9-25,91,81,70,-100,-100,-100,0,0,100,0.00,40.00,0,-999,0,0.00
2013-9-26,93,76,62,-100,-100,-100,0,0,100,0.00,40.00,0,-999,0,0.00
2013-9-27,92,78,65,-100,-100,-100,0,0,100,0.00,40.00,0,-999,0,0.00
2013-9-28,91,77,70,-100,-100,-100,0,0,100,0.00,40.00,0,-999,0,0.00
2013-9-29,80,75,71,-100,-100,-100,0,0,100,0.00,40.00,0,-999,0,0.00
2013-9-30,89,76,71,-100,-100,-100,0,0,100,0.00,40.00,0,-999,0,0.00
2013-10-1,74,74,73,-100,-100,-100,0,0,100,0.00,40.00,0,-999,0,0.00
2013-10-2,91,78,69,-100,-100,-100,0,0,100,0.00,40.00,0,-999,0,0.00
2013-10-3,93,79,71,-100,-100,-100,0,0,100,0.00,40.00,0,-999,0,0.00
2013-10-4,88,81,74,-100,-100,-100,0,0,100,0.00,40.00,0,-999,0,0.00
2013-10-5,84,77,71,-100,-100,-100,0,0,100,0.00,40.00,0,-999,0,0.00
2013-10-6,76,70,60,-100,-100,-100,0,0,100,0.00,40.00,0,-999,0,0.00
2013-10-7,73,61,54,-100,-100,-100,0,0,100,0.00,40.00,0,-999,0,0.00
2013-10-8,75,60,51,-100,-100,-100,0,0,100,0.00,40.00,0,-999,0,0.00
2013-10-9,82,66,53,-100,-100,-100,0,0,100,0.00,40.00,0,-999,0,0.00
2013-10-10,83,67,55,-100,-100,-100,0,0,100,0.00,40.00,0,-999,0,0.00
2013-10-11,91,74,61,-100,-100,-100,0,0,100,0.00,40.00,0,-999,0,0.00
2013-10-12,90,77,69,-100,-100,-100,0,0,100,0.00,40.00,0,-999,0,0.00
2013-10-13,83,76,68,-100,-100,-100,0,0,100,0.00,40.00,0,-999,0,0.00
2013-10-14,87,75,68,-100,-100,-100,0,0,100,0.00,40.00,0,-999,0,0.00
2013-10-15,90,78,67,-100,-100,-100,0,0,100,0.00,40.00,0,-999,0,0.00
2013-10-16,86,78,72,-100,-100,-100,0,0,100,0.00,40.00,0,-999,0,0.00
2013-10-17,69,65,60,-100,-100,-100,0,0,100,0.00,40.00,0,-999,0,0.00
2013-10-18,72,60,51,-100,-100,-100,0,0,100,0.00,40.00,0,-999,0,0.00
2013-10-19,67,62,58,-100,-100,-100,0,0,100,0.00,40.00,0,-999,0,0.00
2013-10-20,73,59,48,-100,-100,-100,0,0,100,0.00,40.00,0,-999,0,0.00
2013-10-21,69,59,55,-100,-100,-100,0,0,100,0.00,40.00,0,-999,0,0.00
2013-10-22,69,63,58,-100,-100,-100,0,0,100,0.00,40.00,0,-999,0,0.00
2013-10-23,75,61,51,-100,-100,-100,0,0,100,0.00,40.00,0,-999,0,0.00
2013-10-24,80,62,49,-100,-100,-100,0,0,100,0.00,40.00,0,-999,0,0.00
2013-10-25,68,57,49,-100,-100,-100,0,0,100,0.00,40.00,0,-999,0,0.00
2013-10-26,80,56,44,-100,-100,-100,0,0,100,0.00,40.00,0,-999,0,0.00
2013-10-27,78,63,51,-100,-100,-100,0,0,100,0.00,40.00,0,-999,0,0.00
2013-10-28,82,69,60,-100,-100,-100,0,0,100,0.00,40.00,0,-999,0,0.00
2013-10-29,84,71,63,-100,-100,-100,0,0,100,0.00,40.00,0,-999,0,0.00
2013-10-30,83,73,65,-100,-100,-100,0,0,100,0.00,40.00,0,-999,0,0.00
2013-10-31,76,72,64,-100,-100,-100,0,0,100,0.00,40.00,0,-999,0,0.00
2013-11-1,74,64,57,-100,-100,-100,0,0,100,0.00,40.00,0,-999,0,0.00
2013-11-2,67,58,52,-100,-100,-100,0,0,100,0.00,40.00,0,-999,0,0.00
2013-11-3,65,52,43,-100,-100,-100,0,0,100,0.00,40.00,0,-999,0,0.00
2013-11-4,76,61,46,-100,-100,-100,0,0,100,0.00,40.00,0,-999,0,0.00
2013-11-5,77,68,61,-100,-100,-100,0,0,100,0.00,40.00,0,-999,0,0.00
2013-11-6,82,71,65,-100,-100,-100,0,0,100,0.00,40.00,0,-999,0,0.00
2013-11-7,58,51,47,-100,-100,-100,0,0,100,0.00,40.00,0,-999,0,0.00
2013-11-8,62,50,43,-100,-100,-100,0,0,100,0.00,40.00,0,-999,0,0.00
2013-11-9,68,55,45,-100,-100,-100,0,0,100,0.00,40.00,0,-999,0,0.00
2013-11-10,71,58,50,-100,-100,-100,0,0,100,0.00,40.00,0,-999,0,0.00
2013-11-11,71,57,47,-100,-100,-100,0,0,100,0.00,40.00,0,-999,0,0.00
2013-11-12,65,52,37,-100,-100,-100,0,0,100,0.00,40.00,0,-999,0,0.00
2013-11-13,51,38,29,-100,-100,-100,0,0,100,0.00,40.00,0,-999,0,0.00
2013-11-14,60,44,29,-100,-100,-100,0,0,100,0.00,40.00,0,-999,0,0.00
2013-11-15,76,62,51,-100,-100,-100,0,0,100,0.00,40.00,0,-999,0,0.00
2013-11-16,82,70,65,-100,-100,-100,0,0,100,0.00,40.00,0,-999,0,0.00
2013-11-17,82,76,70,-100,-100,-100,0,0,100,0.00,40.00,0,-999,0,0.00
2013-11-18,76,70,57,-100,-100,-100,0,0,100,0.00,40.00,0,-999,0,0.00
2013-11-19,65,54,47,-100,-100,-100,0,0,100,0.00,40.00,0,-999,0,0.00
2013-11-20,75,57,40,-100,-100,-100,0,0,100,0.00,40.00,0,-999,0,0.00
2013-11-21,75,66,56,-100,-100,-100,0,0,100,0.00,40.00,0,-999,0,0.00
2013-11-22,70,67,63,-100,-100,-100,0,0,100,0.00,40.00,0,-999,0,0.00
2013-11-23,65,50,41,-100,-100,-100,0,0,100,0.00,40.00,0,-999,0,0.00
2013-11-24,47,39,34,-100,-100,-100,0,0,100,0.00,40.00,0,-999,0,0.00
2013-11-25,40,38,34,-100,-100,-100,0,0,100,0.00,40.00,0,-999,0,0.00
2013-11-26,39,38,37,-100,-100,-100,0,0,100,0.00,40.00,0,-999,0,0.00
2013-11-27,43,36,32,-100,-100,-100,0,0,100,0.00,40.00,0,-999,0,0.00
2013-11-28,46,32,24,-100,-100,-100,0,0,100,0.00,40.00,0,-999,0,0.00
2013-11-29,57,45,29,-100,-100,-100,0,0,100,0.00,40.00,0,-999,0,0.00
2013-11-30,64,47,29,-100,-100,-100,0,0,100,0.00,40.00,0,-999,0,0.00
2013-12-1,72,53,36,-100,-100,-100,0,0,100,0.00,40.00,0,-999,0,0.00
2013-12-2,76,66,58,-100,-100,-100,0,0,100,0.00,40.00,0,-999,0,0.00
2013-12-3,79,70,65,-100,-100,-100,0,0,100,0.00,40.00,0,-999,0,0.00
2013-12-4,80,74,70,-100,-100,-100,0,0,100,0.00,40.00,0,-999,0,0.00
2013-12-5,82,74,56,-100,-100,-100,0,0,100,0.00,40.00,0,-999,0,0.00
2013-12-6,49,42,35,-100,-100,-100,0,0,100,0.00,40.00,0,-999,0,0.00
2013-12-7,35,31,29,-100,-100,-100,0,0,100,0.00,40.00,0,-999,0,0.00
2013-12-8,40,34,30,-100,-100,-100,0,0,100,0.00,40.00,0,-999,0,0.00
2013-12-9,42,39,35,-100,-100,-100,0,0,100,0.00,40.00,0,-999,0,0.00
2013-12-10,42,35,32,-100,-100,-100,0,0,100,0.00,40.00,0,-999,0,0.00
2013-12-11,47,39,29,-100,-100,-100,0,0,100,0.00,40.00,0,-999,0,0.00
2013-12-12,49,39,31,-100,-100,-100,0,0,100,0.00,40.00,0,-999,0,0.00
2013-12-13,62,46,32,-100,-100,-100,0,0,100,0.00,40.00,0,-999,0,0.00
2013-12-14,65,58,44,-100,-100,-100,0,0,100,0.00,40.00,0,-999,0,0.00
2013-12-15,47,41,35,-100,-100,-100,0,0,100,0.00,40.00,0,-999,0,0.00
2013-12-16,58,41,30,-100,-100,-100,0,0,100,0.00,40.00,0,-999,0,0.00
2013-12-17,64,44,34,-100,-100,-100,0,0,100,0.00,40.00,0,-999,0,0.00
2013-12-18,69,47,36,-100,-100,-100,0,0,100,0.00,40.00,0,-999,0,0.00
2013-12-19,73,59,43,-100,-100,-100,0,0,100,0.00,40.00,0,-999,0,0.00
2013-12-20,78,73,65,-100,-100,-100,0,0,100,0.00,40.00,0,-999,0,0.00
2013-12-21,76,69,61,-100,-100,-100,0,0,100,0.00,40.00,0,-999,0,0.00
2013-12-22,64,60,48,-100,-100,-100,0,0,100,0.00,40.00,0,-999,0,0.00
2013-12-23,43,37,32,-100,-100,-100,0,0,100,0.00,40.00,0,-999,0,0.00
2013-12-24,47,37,29,-100,-100,-100,0,0,100,0.00,40.00,0,-999,0,0.00
2013-12-25,48,36,30,-100,-100,-100,0,0,100,0.00,40.00,0,-999,0,0.00
2013-12-26,55,44,33,-100,-100,-100,0,0,100,0.00,40.00,0,-999,0,0.00
2013-12-27,49,44,40,-100,-100,-100,0,0,100,0.00,40.00,0,-999,0,0.00
2013-12-28,46,44,40,-100,-100,-100,0,0,100,0.00,40.00,0,-999,0,0.00
2013-12-29,60,47,31,-100,-100,-100,0,0,100,0.00,40.00,0,-999,0,0.00
2013-12-30,48,45,41,-100,-100,-100,0,0,100,0.00,40.00,0,-999,0,0.00
2013-12-31,45,40,36,-100,-100,-100,0,0,100,0.00,40.00,0,-999,0,0.00
2014-1-1,62,52,43,-100,-100,-100,0,0,100,0.00,40.00,0,-999,0,0.00
2014-1-2,57,46,37,-100,-100,-100,0,0,100,0.00,40.00,0,-999,0,0.00